Time;durP1;ratioP1;P1;durP2;ratioP2;P2;SDS_P1;SDS_P2;PMS_P1;PMS_P2;Temp;Humidity;BMP_temperature;BMP_pressure;BME280_temperature;BME280_humidity;BME280_pressure;Samples;Min_cycle;Max_cycle;Signal;HPM_P1;HPM_P2
2021/06/07 00:02:10;;;;;;;1.27;1.17;;;;;;;20.29;87.77;97756.84;5031981;28;20242;-68
2021/06/07 00:04:36;;;;;;;1.33;1.23;;;;;;;18.66;87.54;97489.53;5066267;28;20279;-68
2021/06/07 00:07:04;;;;;;;1.20;1.20;;;;;;;20.17;87.86;97736.84;5071620;28;20697;-69
2021/06/07 00:09:31;;;;;;;1.33;1.23;;;;;;;18.74;87.42;97504.28;5039485;28;20250;-69
2021/06/07 00:12:00;;;;;;;1.47;1.20;;;;;;;20.29;87.66;97750.06;5061850;28;20331;-68
2021/06/07 00:14:29;;;;;;;1.30;1.20;;;;;;;19.90;87.69;97682.22;5057208;28;20205;-67
2021/06/07 00:16:56;;;;;;;1.40;1.30;;;;;;;20.30;87.60;97750.94;5067810;28;20227;-68
2021/06/07 00:19:22;;;;;;;1.40;1.30;;;;;;;20.30;87.59;97753.47;5068202;28;20295;-68
2021/06/07 00:21:49;;;;;;;1.30;1.20;;;;;;;19.78;87.38;97677.47;5066399;28;20200;-68
2021/06/07 00:24:16;;;;;;;1.30;1.20;;;;;;;20.29;87.44;97755.19;5054797;28;20236;-68
2021/06/07 00:26:43;;;;;;;1.20;1.20;;;;;;;20.29;87.57;97751.75;5070189;28;20850;-68
2021/06/07 00:29:10;;;;;;;1.30;1.30;;;;;;;20.17;87.66;97725.78;5071967;28;20235;-68
2021/06/07 00:31:37;;;;;;;1.33;1.23;;;;;;;20.29;87.76;97749.19;5065722;28;20235;-68
2021/06/07 00:34:04;;;;;;;1.83;1.27;;;;;;;20.05;87.81;97702.31;5057920;28;20838;-68
2021/06/07 00:36:31;;;;;;;1.13;1.13;;;;;;;20.23;87.68;97736.22;5057271;28;20200;-68
2021/06/07 00:38:57;;;;;;;1.07;1.07;;;;;;;20.10;87.74;97713.56;5048685;28;20267;-68
2021/06/07 00:41:24;;;;;;;1.10;1.10;;;;;;;20.16;87.60;97737.66;5070277;28;20287;-68
2021/06/07 00:43:55;;;;;;;1.40;1.30;;;;;;;20.16;87.43;97719.78;5070679;28;20207;-69
2021/06/07 00:46:21;;;;;;;1.40;1.30;;;;;;;20.16;88.04;97726.59;5045716;28;20259;-68
2021/06/07 00:48:48;;;;;;;1.40;1.27;;;;;;;20.15;87.68;97723.16;5054204;28;20220;-68
2021/06/07 00:51:15;;;;;;;2.10;1.30;;;;;;;20.16;87.96;97722.34;5060386;28;20287;-68
2021/06/07 00:53:41;;;;;;;1.40;1.30;;;;;;;20.29;87.89;97750.06;5070087;28;20200;-68
2021/06/07 00:56:09;;;;;;;1.20;1.20;;;;;;;19.86;88.01;97695.63;5070347;28;20283;-68
2021/06/07 00:58:40;;;;;;;1.40;1.30;;;;;;;20.09;87.88;97712.69;5057658;28;20231;-70
2021/06/07 01:01:08;;;;;;;1.40;1.30;;;;;;;20.16;87.72;97722.34;5050637;28;20234;-69
2021/06/07 01:03:35;;;;;;;1.00;1.00;;;;;;;20.29;87.94;97744.09;5052480;28;20200;-69
2021/06/07 01:06:02;;;;;;;1.13;1.10;;;;;;;20.17;87.66;97720.66;5068352;28;20658;-69
2021/06/07 01:08:29;;;;;;;1.30;1.20;;;;;;;19.98;87.42;97685.03;5062054;28;20652;-69
2021/06/07 01:10:56;;;;;;;1.20;1.10;;;;;;;20.30;87.75;97746.69;5052431;28;20236;-69
2021/06/07 01:13:23;;;;;;;1.30;1.20;;;;;;;20.17;87.85;97724.09;5068882;28;20263;-69
2021/06/07 01:15:50;;;;;;;1.40;1.30;;;;;;;20.30;87.67;97743.28;5036398;28;20228;-69
2021/06/07 01:18:19;;;;;;;1.00;1.00;;;;;;;20.13;87.62;97744.34;5075979;28;20642;-69
2021/06/07 01:20:51;;;;;;;1.77;1.30;;;;;;;20.15;87.46;97725.72;5069846;28;20204;-68
2021/06/07 01:23:17;;;;;;;1.60;1.50;;;;;;;20.29;87.42;97742.41;5051587;28;20610;-70
2021/06/07 01:25:44;;;;;;;1.40;1.30;;;;;;;20.07;87.29;97708.34;5075607;28;20200;-68
2021/06/07 01:28:13;;;;;;;1.63;1.53;;;;;;;20.28;87.28;97734.72;5066555;28;20717;-69
2021/06/07 01:30:41;;;;;;;1.20;1.20;;;;;;;20.23;87.11;97761.72;5070815;28;20200;-69
2021/06/07 01:33:09;;;;;;;1.67;1.20;;;;;;;20.23;87.33;97729.44;5034945;28;20196;-69
2021/06/07 01:35:36;;;;;;;1.40;1.30;;;;;;;20.16;87.34;97721.50;5047349;28;20235;-68
2021/06/07 01:38:04;;;;;;;1.60;1.50;;;;;;;20.22;87.55;97729.38;5056592;28;20248;-68
2021/06/07 01:40:35;;;;;;;1.20;1.20;;;;;;;19.76;87.55;97648.53;5070283;28;20692;-69
2021/06/07 01:43:02;;;;;;;1.23;1.20;;;;;;;20.11;87.64;97713.63;5059034;28;20231;-69
2021/06/07 01:45:32;;;;;;;1.40;1.30;;;;;;;20.22;87.96;97725.13;5030950;28;20612;-69
2021/06/07 01:47:59;;;;;;;1.27;1.20;;;;;;;20.28;87.72;97738.09;5068857;28;20311;-69
2021/06/07 01:50:26;;;;;;;1.27;1.17;;;;;;;20.21;87.54;97725.94;5076807;28;20753;-68
2021/06/07 01:52:53;;;;;;;1.20;1.20;;;;;;;19.84;87.50;97720.22;5052030;28;20677;-68
2021/06/07 01:55:24;;;;;;;1.33;1.23;;;;;;;20.24;87.85;97731.16;5069775;28;20243;-70
2021/06/07 01:57:51;;;;;;;1.50;1.40;;;;;;;20.29;87.90;97733.88;5076399;28;20259;-70
2021/06/07 02:00:25;;;;;;;1.40;1.30;;;;;;;20.28;87.85;97735.56;5060077;28;20272;-69
2021/06/07 02:02:52;;;;;;;1.17;1.17;;;;;;;19.84;87.80;97662.41;5076138;28;20233;-69
2021/06/07 02:05:22;;;;;;;1.40;1.30;;;;;;;20.27;87.76;97746.59;5052826;28;20738;-69
2021/06/07 02:07:59;;;;;;;1.57;1.47;;;;;;;20.17;87.75;97723.22;5068600;28;20314;-70
2021/06/07 02:10:28;;;;;;;1.17;1.17;;;;;;;20.16;87.57;97718.94;5065313;28;20589;-68
2021/06/07 02:12:55;;;;;;;1.40;1.30;;;;;;;20.24;88.03;97737.94;5058240;28;20236;-69
2021/06/07 02:15:21;;;;;;;1.37;1.27;;;;;;;20.29;87.86;97742.41;5063230;28;20200;-69
2021/06/07 02:17:48;;;;;;;1.10;1.10;;;;;;;20.15;87.74;97709.53;5070170;28;20310;-68
2021/06/07 02:20:16;;;;;;;1.30;1.20;;;;;;;20.30;87.84;97744.16;5067362;28;20287;-68
2021/06/07 02:22:44;;;;;;;1.30;1.20;;;;;;;19.77;87.63;97649.38;5057578;28;20287;-69
2021/06/07 02:25:12;;;;;;;1.13;1.13;;;;;;;20.05;87.72;97695.53;5058045;28;20295;-69
2021/06/07 02:27:38;;;;;;;1.40;1.30;;;;;;;20.29;87.57;97731.34;5064603;28;20221;-69
2021/06/07 02:30:10;;;;;;;1.30;1.20;;;;;;;20.09;87.37;97697.38;5069939;28;20295;-69
2021/06/07 02:32:36;;;;;;;1.10;1.10;;;;;;;20.24;87.32;97720.94;5066825;28;20283;-69
2021/06/07 02:35:05;;;;;;;1.20;1.20;;;;;;;20.24;87.44;97732.84;5068064;28;20231;-69
2021/06/07 02:37:31;;;;;;;2.60;1.20;;;;;;;20.12;87.47;97709.38;5042321;28;20307;-70
2021/06/07 02:39:58;;;;;;;1.40;1.30;;;;;;;20.28;87.50;97748.31;5041180;28;20295;-69
2021/06/07 02:42:25;;;;;;;1.50;1.40;;;;;;;20.29;87.57;97742.41;5062722;28;20250;-68
2021/06/07 02:44:51;;;;;;;1.30;1.20;;;;;;;20.29;87.37;97741.53;5075490;28;20623;-69
2021/06/07 02:47:18;;;;;;;1.30;1.30;;;;;;;19.87;87.64;97670.19;5077754;28;20490;-69
2021/06/07 02:49:44;;;;;;;1.40;1.30;;;;;;;20.28;87.53;97745.75;5067014;28;20200;-69
2021/06/07 02:52:11;;;;;;;1.20;1.10;;;;;;;20.29;87.37;97746.66;5069285;28;20362;-69
2021/06/07 02:54:38;;;;;;;1.50;1.40;;;;;;;19.81;87.65;97669.09;5067381;28;20263;-68
2021/06/07 02:57:05;;;;;;;1.40;1.30;;;;;;;20.27;87.67;97750.81;5067396;28;20270;-69
2021/06/07 02:59:31;;;;;;;1.10;1.10;;;;;;;20.23;87.46;97772.81;5078186;28;20231;-70
2021/06/07 03:01:58;;;;;;;1.37;1.27;;;;;;;20.14;87.50;97743.50;5067664;28;20295;-68
2021/06/07 03:04:24;;;;;;;1.10;1.10;;;;;;;20.29;87.87;97754.31;5066818;28;20242;-68
2021/06/07 03:06:51;;;;;;;1.60;1.50;;;;;;;20.17;87.52;97738.53;5068813;28;20526;-69
2021/06/07 03:09:17;;;;;;;1.37;1.27;;;;;;;20.09;87.73;97719.47;5048272;28;20880;-69
2021/06/07 03:11:45;;;;;;;1.40;1.30;;;;;;;20.29;87.57;97754.31;5050283;28;20297;-69
2021/06/07 03:14:12;;;;;;;1.27;1.20;;;;;;;20.09;87.75;97715.25;5067097;28;20204;-69
2021/06/07 03:16:38;;;;;;;1.10;1.10;;;;;;;19.91;87.73;97687.38;5050299;28;20291;-69
2021/06/07 03:19:05;;;;;;;1.30;1.30;;;;;;;19.89;87.69;97685.53;5050854;28;20206;-68
2021/06/07 03:21:31;;;;;;;1.20;1.20;;;;;;;20.29;87.93;97760.28;5050033;28;20256;-69
2021/06/07 03:23:58;;;;;;;1.20;1.20;;;;;;;20.29;87.62;97757.75;5076814;28;20326;-69
2021/06/07 03:26:25;;;;;;;1.00;1.00;;;;;;;19.59;87.67;97658.88;5075084;28;20238;-67
2021/06/07 03:28:51;;;;;;;1.20;1.20;;;;;;;20.30;87.75;97756.03;5050623;28;20277;-69
2021/06/07 03:31:18;;;;;;;1.30;1.27;;;;;;;20.12;87.59;97722.13;5068712;28;20295;-69
2021/06/07 03:33:45;;;;;;;1.40;1.30;;;;;;;20.29;87.42;97754.31;5067080;28;20598;-70
2021/06/07 03:36:11;;;;;;;1.07;1.07;;;;;;;18.36;87.22;97430.63;5067908;28;20235;-68
2021/06/07 03:38:38;;;;;;;1.20;1.20;;;;;;;20.29;87.33;97751.75;5065608;28;20248;-69
2021/06/07 03:41:05;;;;;;;1.53;1.43;;;;;;;20.29;87.31;97746.66;5066643;28;20208;-69
2021/06/07 03:43:33;;;;;;;1.23;1.20;;;;;;;20.15;87.24;97725.72;5076075;28;20223;-69
2021/06/07 03:45:59;;;;;;;1.20;1.20;;;;;;;20.29;87.26;97744.09;5042625;28;20228;-69
2021/06/07 03:48:26;;;;;;;1.30;1.20;;;;;;;20.29;87.91;97749.19;5057125;28;20225;-68
2021/06/07 03:50:53;;;;;;;1.40;1.30;;;;;;;19.99;87.48;97698.69;5054459;28;20235;-68
2021/06/07 03:53:19;;;;;;;1.40;1.30;;;;;;;20.16;87.83;97732.53;5063342;28;20239;-69
2021/06/07 03:55:46;;;;;;;2.73;1.17;;;;;;;20.06;88.02;97714.25;5065981;28;20291;-69
2021/06/07 03:58:15;;;;;;;1.60;1.50;;;;;;;20.28;87.98;97753.41;5051507;28;20255;-68
2021/06/07 04:00:41;;;;;;;1.23;1.20;;;;;;;19.49;87.96;97656.78;5062721;28;20294;-68
2021/06/07 04:03:09;;;;;;;3.03;1.30;;;;;;;19.92;88.00;97689.09;5057929;28;20209;-69
2021/06/07 04:05:36;;;;;;;1.47;1.37;;;;;;;18.76;87.52;97499.25;5031198;28;20240;-69
2021/06/07 04:08:06;;;;;;;1.40;1.30;;;;;;;20.28;88.06;97753.41;5047734;28;20274;-69
2021/06/07 04:10:33;;;;;;;1.33;1.23;;;;;;;20.13;88.10;97732.44;5063890;28;20227;-69
2021/06/07 04:12:59;;;;;;;1.50;1.40;;;;;;;20.27;88.12;97754.25;5064316;28;20649;-69
2021/06/07 04:15:27;;;;;;;1.20;1.20;;;;;;;19.84;88.02;97684.53;5065355;28;20214;-68
2021/06/07 04:17:54;;;;;;;1.50;1.40;;;;;;;19.77;87.89;97672.31;5053536;28;20667;-69
2021/06/07 04:20:23;;;;;;;1.33;1.30;;;;;;;20.30;87.76;97766.25;5064805;28;20677;-69
2021/06/07 04:22:50;;;;;;;1.37;1.30;;;;;;;20.29;87.90;97760.28;5065889;28;20333;-69
2021/06/07 04:25:19;;;;;;;1.40;1.30;;;;;;;20.11;87.56;97726.38;5061504;28;20264;-69
2021/06/07 04:27:50;;;;;;;1.53;1.40;;;;;;;20.29;87.85;97759.41;5044939;28;20936;-69
2021/06/07 04:30:18;;;;;;;1.40;1.30;;;;;;;20.29;87.86;97759.41;5074113;28;20308;-69
2021/06/07 04:32:46;;;;;;;1.20;1.20;;;;;;;20.22;87.74;97748.09;5065177;28;20216;-69
2021/06/07 04:35:13;;;;;;;1.40;1.30;;;;;;;20.29;87.86;97762.84;5065321;28;20812;-70
2021/06/07 04:37:50;;;;;;;1.43;1.33;;;;;;;20.18;87.53;97743.69;5070610;28;20248;-69
2021/06/07 04:40:18;;;;;;;1.40;1.30;;;;;;;19.87;87.63;97690.59;5034957;28;20200;-69
2021/06/07 04:42:45;;;;;;;1.30;1.20;;;;;;;19.95;87.49;97709.63;5035866;28;20227;-69
2021/06/07 04:45:12;;;;;;;1.40;1.30;;;;;;;20.06;87.34;97725.34;5042836;28;20291;-69
2021/06/07 04:47:38;;;;;;;1.73;1.10;;;;;;;20.16;87.30;97744.44;5044559;28;20301;-68
2021/06/07 04:50:07;;;;;;;1.40;1.30;;;;;;;20.01;87.46;97713.22;5064091;28;20830;-69
2021/06/07 04:52:35;;;;;;;1.27;1.20;;;;;;;20.18;87.59;97768.31;5073156;28;20291;-69
2021/06/07 04:55:03;;;;;;;1.30;1.20;;;;;;;20.24;87.61;97761.78;5036074;28;20215;-69
2021/06/07 04:57:29;;;;;;;1.50;1.40;;;;;;;19.86;87.56;97700.72;5048571;28;20726;-68
2021/06/07 04:59:56;;;;;;;1.73;1.30;;;;;;;20.18;87.69;97750.47;5043004;28;20232;-68
2021/06/07 05:02:23;;;;;;;1.80;1.30;;;;;;;19.86;87.32;97690.53;5063931;28;20240;-68
2021/06/07 05:04:49;;;;;;;1.50;1.40;;;;;;;20.22;88.25;97754.91;5064481;28;20208;-68
2021/06/07 05:07:16;;;;;;;1.47;1.37;;;;;;;20.17;87.24;97741.97;5065378;28;20311;-69
2021/06/07 05:09:42;;;;;;;1.40;1.30;;;;;;;19.78;87.57;97671.53;5063995;28;20239;-69
2021/06/07 05:12:09;;;;;;;1.20;1.20;;;;;;;20.30;87.66;97767.13;5048764;28;20307;-68
2021/06/07 05:14:36;;;;;;;1.50;1.40;;;;;;;20.31;87.68;97766.28;5059684;28;20662;-69
2021/06/07 05:17:03;;;;;;;1.40;1.30;;;;;;;19.97;87.82;97717.31;5067058;28;20220;-69
2021/06/07 05:19:30;;;;;;;1.40;1.30;;;;;;;20.15;87.92;97745.25;5068429;28;20212;-68
2021/06/07 05:21:56;;;;;;;1.40;1.30;;;;;;;20.32;87.98;97777.38;5067838;28;20227;-69
2021/06/07 05:24:23;;;;;;;1.77;1.43;;;;;;;20.14;87.95;97744.41;5069533;28;20291;-69
2021/06/07 05:26:49;;;;;;;3.07;1.37;;;;;;;20.31;87.92;97781.63;5066016;28;20232;-69
2021/06/07 05:29:16;;;;;;;1.83;1.20;;;;;;;20.33;87.68;97779.13;5063930;28;20279;-69
2021/06/07 05:31:43;;;;;;;5.67;1.67;;;;;;;20.31;87.87;97763.75;5071800;28;20291;-69
2021/06/07 05:34:09;;;;;;;3.93;1.40;;;;;;;20.29;87.70;97767.06;5065214;28;20208;-67
2021/06/07 05:36:36;;;;;;;3.17;1.70;;;;;;;20.09;87.41;97735.66;5049558;28;20246;-69
2021/06/07 05:39:03;;;;;;;2.70;1.47;;;;;;;20.21;87.77;97754.00;5050563;28;20247;-69
2021/06/07 05:41:29;;;;;;;2.43;1.60;;;;;;;20.05;87.45;97738.91;5053407;28;20246;-69
2021/06/07 05:43:56;;;;;;;2.27;1.50;;;;;;;20.22;88.09;97768.50;5066544;28;20281;-68
2021/06/07 05:46:23;;;;;;;2.37;1.57;;;;;;;20.33;87.86;97785.09;5066534;28;20279;-68
2021/06/07 05:48:49;;;;;;;1.87;1.43;;;;;;;19.89;87.83;97709.38;5068424;28;20228;-68
2021/06/07 05:51:16;;;;;;;2.43;1.50;;;;;;;20.15;87.74;97751.22;5056264;28;20292;-68
2021/06/07 05:53:43;;;;;;;1.50;1.40;;;;;;;20.28;87.98;97773.84;5064897;28;20236;-69
2021/06/07 05:56:10;;;;;;;1.63;1.53;;;;;;;20.35;87.85;97786.03;5066697;28;20299;-68
2021/06/07 05:58:37;;;;;;;2.20;1.57;;;;;;;20.31;87.67;97780.75;5063854;28;20801;-68
2021/06/07 06:01:03;;;;;;;3.10;1.50;;;;;;;20.37;87.73;97786.94;5065712;28;20232;-69
2021/06/07 06:03:30;;;;;;;1.67;1.57;;;;;;;20.36;87.95;97787.78;5066136;28;20689;-69
2021/06/07 06:05:57;;;;;;;1.97;1.57;;;;;;;20.26;87.38;97767.81;5066190;28;20891;-69
2021/06/07 06:08:23;;;;;;;3.43;1.60;;;;;;;20.35;87.62;97786.03;5065099;28;20479;-69
2021/06/07 06:10:50;;;;;;;1.90;1.70;;;;;;;20.24;87.33;97764.34;5068113;28;20201;-69
2021/06/07 06:13:36;;;;;;;1.60;1.50;;;;;;;20.26;87.39;97761.84;5055309;28;20616;-68
2021/06/07 06:16:03;;;;;;;1.67;1.57;;;;;;;19.86;87.20;97696.50;5066364;28;20196;-69
2021/06/07 06:18:30;;;;;;;1.63;1.53;;;;;;;20.25;87.16;97768.63;5065082;28;20277;-68
2021/06/07 06:20:57;;;;;;;1.70;1.60;;;;;;;20.25;87.63;97775.44;5055041;28;20202;-69
2021/06/07 06:23:23;;;;;;;1.50;1.40;;;;;;;20.37;87.43;97789.50;5064644;28;20287;-69
2021/06/07 06:25:50;;;;;;;1.40;1.30;;;;;;;20.31;87.30;97786.72;5064521;28;20283;-69
2021/06/07 06:28:16;;;;;;;2.70;1.37;;;;;;;20.27;87.47;97772.09;5065187;28;20427;-68
2021/06/07 06:30:43;;;;;;;1.53;1.43;;;;;;;20.40;87.33;97798.97;5054857;28;20235;-69
2021/06/07 06:33:09;;;;;;;5.07;1.50;;;;;;;20.39;87.23;97792.13;5062079;28;20197;-69
2021/06/07 06:35:36;;;;;;;1.57;1.47;;;;;;;20.26;87.15;97772.94;5072674;28;20292;-68
2021/06/07 06:38:03;;;;;;;1.70;1.60;;;;;;;20.27;87.26;97784.88;5050947;28;20307;-69
2021/06/07 06:40:31;;;;;;;1.60;1.40;;;;;;;20.01;87.35;97736.19;5048989;28;20196;-68
2021/06/07 06:42:58;;;;;;;2.00;1.50;;;;;;;20.39;87.36;97800.66;5033005;28;20289;-69
2021/06/07 06:45:26;;;;;;;2.10;1.67;;;;;;;19.89;87.22;97719.59;5069306;28;20681;-68
2021/06/07 06:47:56;;;;;;;1.70;1.60;;;;;;;19.97;87.43;97730.09;5032315;28;20309;-68
2021/06/07 06:50:24;;;;;;;2.43;1.60;;;;;;;19.96;87.31;97731.75;5042777;28;20231;-69
2021/06/07 06:52:51;;;;;;;1.50;1.40;;;;;;;20.05;87.14;97741.47;5052411;28;20593;-68
2021/06/07 06:55:17;;;;;;;1.67;1.57;;;;;;;20.28;87.22;97784.03;5049164;28;20238;-68
2021/06/07 06:57:44;;;;;;;1.60;1.50;;;;;;;20.33;86.92;97796.97;5049792;28;20255;-68
2021/06/07 07:00:11;;;;;;;1.60;1.50;;;;;;;20.18;87.03;97774.31;5047844;28;20240;-67
2021/06/07 07:02:38;;;;;;;2.13;1.40;;;;;;;20.39;87.36;97809.97;5048543;28;20205;-67
2021/06/07 07:05:05;;;;;;;1.53;1.40;;;;;;;20.38;86.92;97806.56;5063684;28;20283;-68
2021/06/07 07:07:32;;;;;;;1.63;1.53;;;;;;;20.10;87.00;97762.03;5065306;28;20302;-69
2021/06/07 07:09:58;;;;;;;3.60;1.40;;;;;;;18.76;87.00;97533.22;5047534;28;20258;-68
2021/06/07 07:12:26;;;;;;;1.57;1.47;;;;;;;19.92;87.28;97737.56;5076634;28;20462;-67
2021/06/07 07:14:53;;;;;;;1.70;1.60;;;;;;;20.38;87.22;97811.69;5065057;28;20234;-68
2021/06/07 07:17:20;;;;;;;1.50;1.40;;;;;;;20.35;87.19;97818.34;5065027;28;20224;-69
2021/06/07 07:19:48;;;;;;;1.60;1.50;;;;;;;20.39;87.33;97818.53;5044842;28;20255;-67
2021/06/07 07:22:15;;;;;;;1.40;1.30;;;;;;;20.38;87.23;97819.34;5073304;28;20716;-68
2021/06/07 07:24:44;;;;;;;1.73;1.57;;;;;;;20.33;87.41;97805.53;5062799;28;20239;-68
2021/06/07 07:27:12;;;;;;;2.63;1.30;;;;;;;20.27;87.44;97796.75;5063268;28;20281;-69
2021/06/07 07:29:39;;;;;;;1.50;1.40;;;;;;;20.27;87.55;97795.09;5050848;28;20311;-68
2021/06/07 07:32:06;;;;;;;1.50;1.40;;;;;;;20.25;87.28;97790.75;5062464;28;20226;-68
2021/06/07 07:34:33;;;;;;;1.60;1.50;;;;;;;20.34;87.11;97809.81;5063725;28;20857;-68
2021/06/07 07:37:00;;;;;;;1.50;1.40;;;;;;;20.18;87.28;97775.97;5073486;28;20299;-68
2021/06/07 07:39:27;;;;;;;1.50;1.40;;;;;;;19.98;87.29;97748.81;5044942;28;20334;-68
2021/06/07 07:41:54;;;;;;;1.40;1.30;;;;;;;18.63;87.21;97513.19;5051783;28;20224;-68
2021/06/07 07:44:20;;;;;;;1.60;1.50;;;;;;;20.38;87.43;97810.81;5029446;28;20230;-68
2021/06/07 07:46:47;;;;;;;2.63;1.60;;;;;;;20.33;87.52;97802.97;5064576;28;20291;-68
2021/06/07 07:49:13;;;;;;;1.63;1.53;;;;;;;20.33;87.20;97808.06;5047788;28;20226;-68
2021/06/07 07:51:41;;;;;;;4.30;1.70;;;;;;;20.39;87.04;97825.28;5046192;28;20207;-67
2021/06/07 07:54:08;;;;;;;2.50;1.70;;;;;;;19.98;87.27;97750.56;5065949;28;20657;-67
2021/06/07 07:56:37;;;;;;;1.93;1.80;;;;;;;20.38;87.50;97813.34;5048168;28;20204;-69
2021/06/07 07:59:04;;;;;;;1.60;1.50;;;;;;;19.93;85.03;97744.38;5066125;28;20230;-69
2021/06/07 08:01:31;;;;;;;3.13;1.60;;;;;;;20.08;84.93;97767.09;5063569;28;20251;-68
2021/06/07 08:03:57;;;;;;;5.03;1.80;;;;;;;20.17;84.94;97777.69;5048049;28;20216;-68
2021/06/07 08:06:25;;;;;;;2.00;1.60;;;;;;;20.25;85.28;97803.50;5061536;28;20692;-68
2021/06/07 08:08:52;;;;;;;5.50;1.70;;;;;;;20.34;86.32;97809.81;5064009;28;20354;-68
2021/06/07 08:11:20;;;;;;;2.07;1.70;;;;;;;20.24;86.58;97800.06;5070103;28;20235;-68
2021/06/07 08:13:48;;;;;;;2.40;1.60;;;;;;;20.31;86.99;97807.13;5026521;28;20254;-68
2021/06/07 08:16:14;;;;;;;3.13;1.87;;;;;;;20.36;86.99;97822.63;5053057;28;20201;-68
2021/06/07 08:18:41;;;;;;;1.60;1.50;;;;;;;20.37;87.15;97822.69;5070548;28;20218;-68
2021/06/07 08:21:07;;;;;;;1.80;1.70;;;;;;;19.85;87.00;97730.50;5065088;28;20239;-67
2021/06/07 08:23:34;;;;;;;2.47;1.80;;;;;;;20.27;86.66;97809.50;5056507;28;20676;-68
2021/06/07 08:26:01;;;;;;;1.90;1.80;;;;;;;20.37;87.12;97825.25;5064263;28;20245;-67
2021/06/07 08:28:27;;;;;;;2.63;1.90;;;;;;;20.32;86.85;97818.22;5047028;28;20256;-68
2021/06/07 08:30:54;;;;;;;2.10;1.80;;;;;;;19.84;86.76;97733.81;5048015;28;20281;-68
2021/06/07 08:33:21;;;;;;;1.70;1.60;;;;;;;20.36;86.78;97826.06;5067575;28;20295;-68
2021/06/07 08:35:47;;;;;;;3.93;1.50;;;;;;;20.20;87.06;97793.13;5062298;28;20204;-68
2021/06/07 08:38:14;;;;;;;2.17;1.90;;;;;;;20.19;87.15;97800.72;5047118;28;20303;-68
2021/06/07 08:40:40;;;;;;;2.03;1.83;;;;;;;20.34;87.39;97821.72;5034665;28;20287;-68
2021/06/07 08:43:07;;;;;;;1.70;1.60;;;;;;;20.36;87.16;97827.72;5065621;28;20291;-67
2021/06/07 08:45:35;;;;;;;1.80;1.67;;;;;;;20.35;87.30;97826.88;5061608;28;20232;-68
2021/06/07 08:48:01;;;;;;;1.90;1.80;;;;;;;20.28;87.31;97813.81;5072036;28;20316;-68
2021/06/07 08:50:29;;;;;;;1.70;1.60;;;;;;;20.37;87.22;97821.84;5078998;28;20228;-68
2021/06/07 08:52:56;;;;;;;1.70;1.60;;;;;;;20.17;87.19;97789.56;5069764;28;20769;-69
2021/06/07 08:55:24;;;;;;;1.67;1.57;;;;;;;20.23;87.08;97811.09;5085101;28;20196;-68
2021/06/07 08:57:52;;;;;;;2.13;1.50;;;;;;;19.73;86.88;97713.81;5072066;28;20787;-69
2021/06/07 09:00:21;;;;;;;1.50;1.40;;;;;;;20.36;86.89;97826.06;5068208;28;20235;-68
2021/06/07 09:02:48;;;;;;;2.10;1.77;;;;;;;20.23;86.89;97810.22;5069100;28;20620;-68
2021/06/07 09:05:17;;;;;;;1.87;1.77;;;;;;;20.34;87.02;97830.22;5062151;28;20203;-68
2021/06/07 09:07:57;;;;;;;1.60;1.50;;;;;;;20.29;86.69;97816.44;5067695;28;20243;-68
2021/06/07 09:10:25;;;;;;;1.80;1.70;;;;;;;20.34;86.93;97826.81;5061491;28;20235;-68
2021/06/07 09:13:00;;;;;;;1.50;1.40;;;;;;;20.33;87.20;97828.50;5057142;28;20242;-68
2021/06/07 09:15:29;;;;;;;2.10;1.77;;;;;;;20.33;87.08;97836.16;5073708;28;20620;-68
2021/06/07 09:17:56;;;;;;;2.00;1.80;;;;;;;20.21;87.16;97811.81;5067399;28;20230;-67
2021/06/07 09:20:23;;;;;;;1.70;1.60;;;;;;;19.84;87.17;97749.13;5067048;28;20283;-67
2021/06/07 09:23:00;;;;;;;1.70;1.60;;;;;;;20.21;87.16;97810.16;5050705;28;20236;-68
2021/06/07 09:25:29;;;;;;;1.70;1.60;;;;;;;20.17;87.03;97802.31;5051096;28;20390;-67
2021/06/07 09:28:12;;;;;;;2.40;1.70;;;;;;;20.32;87.30;97836.09;5066316;28;20282;-68
2021/06/07 09:30:42;;;;;;;1.60;1.50;;;;;;;20.32;87.22;97834.44;5051199;28;20247;-68
2021/06/07 09:33:32;;;;;;;1.60;1.50;;;;;;;20.26;87.23;97823.97;5068567;28;20315;-67
2021/06/07 09:36:24;;;;;;;1.70;1.60;;;;;;;20.31;87.33;97821.59;5067060;28;20236;-68
2021/06/07 09:38:51;;;;;;;1.70;1.60;;;;;;;20.31;87.32;97825.00;5065515;28;20612;-69
2021/06/07 09:41:17;;;;;;;1.60;1.50;;;;;;;20.31;87.58;97830.09;5068571;28;20300;-68
2021/06/07 09:43:48;;;;;;;1.60;1.50;;;;;;;20.05;87.65;97787.38;5067390;28;20253;-68
2021/06/07 09:46:15;;;;;;;1.70;1.60;;;;;;;19.93;87.48;97764.78;5067082;28;20232;-67
2021/06/07 09:48:42;;;;;;;1.77;1.67;;;;;;;20.17;87.44;97808.31;5050442;28;20285;-68
2021/06/07 09:51:09;;;;;;;1.50;1.40;;;;;;;20.28;87.56;97831.69;5067534;28;20644;-69
2021/06/07 09:53:52;;;;;;;1.50;1.40;;;;;;;20.29;87.19;97844.50;5061913;28;20253;-67
2021/06/07 09:56:19;;;;;;;1.33;1.23;;;;;;;19.98;87.14;97783.72;5063939;28;20423;-68
2021/06/07 09:58:47;;;;;;;1.43;1.33;;;;;;;19.94;87.22;97778.44;5053142;28;20315;-68
2021/06/07 10:01:21;;;;;;;1.87;1.40;;;;;;;20.29;87.47;97838.53;5056270;28;20279;-68
2021/06/07 10:03:52;;;;;;;1.50;1.40;;;;;;;20.29;87.56;97833.41;5041756;28;20207;-68
2021/06/07 10:06:35;;;;;;;3.27;1.57;;;;;;;20.28;87.52;97835.09;5063823;28;20235;-66
2021/06/07 10:09:08;;;;;;;1.63;1.53;;;;;;;20.01;87.59;97777.84;5060482;28;20224;-68
2021/06/07 10:11:40;;;;;;;2.53;1.40;;;;;;;20.29;87.53;97825.75;5066794;28;20690;-68
2021/06/07 10:14:18;;;;;;;1.63;1.53;;;;;;;20.29;87.74;97830.88;5067816;28;20204;-68
2021/06/07 10:17:02;;;;;;;2.00;1.47;;;;;;;20.27;87.64;97823.16;5067058;28;20204;-67
2021/06/07 10:22:08;;;;;;;1.67;1.57;;;;;;;20.28;87.38;97816.38;5078059;28;20254;-68
2021/06/07 10:24:35;;;;;;;1.70;1.60;;;;;;;20.29;87.60;97820.66;5060852;28;20215;-67
2021/06/07 10:27:02;;;;;;;1.63;1.53;;;;;;;20.27;87.53;97812.94;5060194;28;20237;-67
2021/06/07 10:29:37;;;;;;;2.70;1.70;;;;;;;20.22;87.47;97806.78;5059250;28;20253;-68
2021/06/07 10:32:07;;;;;;;1.40;1.30;;;;;;;20.06;87.38;97785.69;5066202;28;20201;-68
2021/06/07 10:34:47;;;;;;;1.53;1.40;;;;;;;20.08;87.65;97784.06;5057110;28;20207;-68
2021/06/07 10:37:14;;;;;;;1.50;1.37;;;;;;;20.16;87.34;97804.00;5066040;28;20270;-68
2021/06/07 10:39:41;;;;;;;1.67;1.57;;;;;;;20.09;87.68;97789.22;5063429;28;20225;-68
2021/06/07 10:42:26;;;;;;;1.40;1.30;;;;;;;20.16;87.40;97805.69;5065333;28;20200;-68
2021/06/07 10:45:03;;;;;;;1.60;1.50;;;;;;;19.91;87.37;97757.91;5049490;28;20287;-67
2021/06/07 10:47:41;;;;;;;1.67;1.40;;;;;;;19.76;87.30;97747.97;5054657;28;20223;-68
2021/06/07 10:50:10;;;;;;;1.70;1.60;;;;;;;19.77;87.43;97749.72;5032084;28;20223;-68
2021/06/07 10:52:44;;;;;;;2.17;1.20;;;;;;;20.28;87.50;97836.78;5029975;28;20211;-68
2021/06/07 10:55:12;;;;;;;1.40;1.30;;;;;;;20.28;87.29;97830.00;5066350;28;20243;-68
2021/06/07 10:57:42;;;;;;;1.57;1.47;;;;;;;20.28;87.44;97835.09;5067542;28;20232;-68
2021/06/07 11:00:09;;;;;;;1.50;1.40;;;;;;;20.27;87.49;97823.16;5060984;28;20793;-68
2021/06/07 11:02:41;;;;;;;1.70;1.60;;;;;;;19.77;87.51;97742.06;5066625;28;20246;-68
2021/06/07 11:05:16;;;;;;;1.50;1.40;;;;;;;19.78;87.54;97738.69;5049391;28;20192;-67
2021/06/07 11:08:04;;;;;;;1.23;1.23;;;;;;;19.85;87.43;97742.34;5055557;28;20842;-68
2021/06/07 11:10:41;;;;;;;1.30;1.30;;;;;;;20.15;87.32;97797.16;5046623;28;20247;-68
2021/06/07 11:13:13;;;;;;;1.53;1.43;;;;;;;20.22;87.68;97804.22;5039677;28;20287;-68
2021/06/07 11:15:56;;;;;;;1.60;1.50;;;;;;;20.15;87.51;97793.72;5040691;28;21014;-68
2021/06/07 11:18:28;;;;;;;1.60;1.50;;;;;;;20.28;87.43;97808.72;5067956;28;20258;-67
2021/06/07 11:20:57;;;;;;;1.53;1.43;;;;;;;20.28;87.46;97816.38;5070112;28;20224;-69
2021/06/07 11:23:34;;;;;;;1.60;1.50;;;;;;;20.28;87.45;97811.28;5066844;28;20931;-67
2021/06/07 11:26:01;;;;;;;1.47;1.37;;;;;;;20.15;87.27;97784.41;5070270;28;20625;-68
2021/06/07 11:28:50;;;;;;;1.57;1.47;;;;;;;19.85;87.07;97740.69;5064768;28;20243;-68
2021/06/07 11:31:17;;;;;;;1.50;1.40;;;;;;;20.27;87.36;97796.75;5062509;28;20298;-69
2021/06/07 11:33:56;;;;;;;1.77;1.67;;;;;;;20.28;87.12;97794.25;5066412;28;20282;-68
2021/06/07 11:36:49;;;;;;;1.50;1.40;;;;;;;20.27;87.17;97792.53;5064474;28;20247;-69
2021/06/07 11:39:44;;;;;;;1.70;1.60;;;;;;;19.01;87.26;97569.03;5064242;28;20223;-68
2021/06/07 11:42:12;;;;;;;1.40;1.30;;;;;;;20.22;87.48;97782.97;5066717;28;20200;-68
2021/06/07 11:44:57;;;;;;;1.40;1.30;;;;;;;20.10;87.44;97755.25;5062722;28;20204;-67